Impacts TAF Board INFO
FOR SITUATIONAL AWARENESS. NOT TO BE USED FOR FLIGHT PLANNING PURPOSES.
IDs:

KMEM - Memphis Intl, TN, US

Issued at 2320 UTC 22 Jan 2018
Updated at 0020 UTC 23 Jan 2018
Potential Impact None Slight Moderate High
Time<<23/13Z 23/14Z 23/15Z 23/16Z 23/17Z 23/18Z 23/19Z 23/20Z 23/21Z 23/22Z 23/23Z 24/00Z 24/01Z>>
Type PRVL PRVL PRVL PRVL PRVL PRVL PRVL PRVL PRVL PRVL PRVL PRVL PRVL
VIS >6 >6 >6 >6 >6 >6 >6 >6 >6 >6 >6 >6 >6
CIG 45 45 45 35 35 35 35 35 35 35 35 35 35
Cover BKN BKN BKN BKN BKN BKN BKN BKN BKN BKN BKN BKN BKN
FltCat VFR VFR VFR VFR VFR VFR VFR VFR VFR VFR VFR VFR VFR
WX -- -- -- -- -- -- -- -- -- -- -- -- --
WDir 270 270 270 300 300 300 300 300 300 300 300 300 300
WSpd 12 12 12 11 11 11 11 11 11 11 11 11 11
WGst -- -- -- 18 18 18 18 18 18 18 18 18 18

Raw TAF
KMEM 222320Z 2300/2406 24015G21KT P6SM SCT060
  FM230030 24012G18KT P6SM BKN060
  FM230800 27012KT P6SM BKN045
  FM231600 30011G18KT P6SM BKN035


METAR Board
Radar Display
Forecast Discussion

FOR SITUATIONAL AWARENESS. NOT TO BE USED FOR FLIGHT PLANNING PURPOSES.